createdAt,value
2019-05-30T00:01:08.504Z,15.78
2019-05-30T00:03:38.996Z,15.72
2019-05-30T00:06:09.588Z,14.83
2019-05-30T00:08:39.870Z,15.98
2019-05-30T00:11:10.147Z,15.00
2019-05-30T00:13:40.418Z,14.95
2019-05-30T00:16:10.695Z,14.30
2019-05-30T00:18:40.916Z,14.07
2019-05-30T00:21:11.312Z,13.00
2019-05-30T00:23:41.538Z,12.73
2019-05-30T00:26:11.947Z,13.80
2019-05-30T00:28:42.207Z,12.53
2019-05-30T00:31:12.491Z,11.75
2019-05-30T00:33:42.755Z,12.47
2019-05-30T00:36:12.976Z,12.25
2019-05-30T00:38:43.246Z,12.88
2019-05-30T00:41:13.532Z,13.22
2019-05-30T00:43:43.718Z,12.15
2019-05-30T00:46:14.063Z,13.35
2019-05-30T00:48:44.256Z,12.85
2019-05-30T00:51:14.487Z,13.00
2019-05-30T00:53:44.698Z,12.35
2019-05-30T00:56:14.908Z,12.68
2019-05-30T00:58:45.119Z,13.03
2019-05-30T01:01:15.387Z,13.68
2019-05-30T01:03:45.734Z,13.13
2019-05-30T01:06:15.986Z,13.90
2019-05-30T01:08:46.476Z,14.33
2019-05-30T01:11:16.826Z,13.15
2019-05-30T01:13:47.522Z,13.83
2019-05-30T01:16:17.716Z,13.93
2019-05-30T01:18:47.998Z,14.78
2019-05-30T01:21:18.360Z,14.83
2019-05-30T01:23:48.576Z,15.10
2019-05-30T01:26:18.838Z,15.00
2019-05-30T01:28:49.056Z,15.58
2019-05-30T01:31:19.250Z,16.35
2019-05-30T01:33:49.472Z,14.18
2019-05-30T01:36:19.669Z,14.40
2019-05-30T01:38:50.247Z,14.93
2019-05-30T01:41:20.448Z,14.07
2019-05-30T01:43:50.663Z,14.90
2019-05-30T01:46:20.892Z,14.60
2019-05-30T01:48:51.143Z,14.23
2019-05-30T01:51:21.414Z,13.93
2019-05-30T01:53:51.626Z,15.10
2019-05-30T01:56:21.822Z,14.25
2019-05-30T01:58:52.046Z,13.85
2019-05-30T02:01:25.027Z,13.83
2019-05-30T02:03:54.145Z,12.47
2019-05-30T02:06:24.357Z,12.63
2019-05-30T02:08:55.047Z,11.48
2019-05-30T02:11:25.333Z,11.45
2019-05-30T02:13:55.806Z,10.37
2019-05-30T02:16:26.081Z,11.25
2019-05-30T02:18:56.294Z,10.55
2019-05-30T02:21:26.486Z,10.08
2019-05-30T02:23:56.698Z,10.55
2019-05-30T02:26:27.003Z,11.10
2019-05-30T02:28:57.565Z,10.38
2019-05-30T02:31:38.899Z,9.37
2019-05-30T02:34:01.085Z,9.23
2019-05-30T02:36:33.683Z,8.30
2019-05-30T02:39:07.453Z,8.35
2019-05-30T02:41:38.735Z,8.00
2019-05-30T02:44:12.161Z,6.58
2019-05-30T02:46:41.871Z,6.92
2019-05-30T02:49:13.828Z,6.10
2019-05-30T02:51:44.454Z,5.62
2019-05-30T02:54:14.745Z,5.50
2019-05-30T02:56:45.187Z,5.43
2019-05-30T02:59:15.464Z,5.20
2019-05-30T03:02:00.193Z,5.15
2019-05-30T03:04:17.816Z,5.53
2019-05-30T03:06:48.082Z,5.10
2019-05-30T03:09:18.281Z,5.95
2019-05-30T03:11:48.519Z,5.78
2019-05-30T03:14:19.956Z,6.37
2019-05-30T03:16:50.458Z,5.90
2019-05-30T03:19:20.717Z,5.35
2019-05-30T03:21:51.009Z,5.47
2019-05-30T03:24:21.543Z,5.37
2019-05-30T03:26:51.741Z,5.97
2019-05-30T03:29:21.931Z,5.28
2019-05-30T03:31:52.505Z,5.50
2019-05-30T03:34:28.495Z,5.75
2019-05-30T03:36:54.856Z,5.40
2019-05-30T03:39:25.039Z,6.00
2019-05-30T03:41:55.238Z,5.70
2019-05-30T03:44:25.534Z,5.53
2019-05-30T03:46:57.969Z,5.87
2019-05-30T03:49:29.709Z,6.00
2019-05-30T03:54:29.284Z,5.45
2019-05-30T03:57:06.906Z,5.33
2019-05-30T03:59:44.291Z,5.72
2019-05-30T04:02:21.212Z,5.90
2019-05-30T04:05:09.121Z,6.25
2019-05-30T04:07:40.976Z,5.90
2019-05-30T04:10:11.482Z,6.33
2019-05-30T04:13:02.056Z,6.72
2019-05-30T04:15:33.716Z,7.25
2019-05-30T04:18:04.258Z,8.03
2019-05-30T04:20:34.735Z,8.05
2019-05-30T04:23:04.999Z,8.58
2019-05-30T04:25:35.423Z,8.63
2019-05-30T04:28:07.860Z,8.88
2019-05-30T04:30:38.434Z,8.00
2019-05-30T04:33:19.417Z,8.58
2019-05-30T04:35:41.944Z,8.48
2019-05-30T04:38:12.742Z,8.80
2019-05-30T04:40:43.969Z,8.88
2019-05-30T04:43:15.439Z,9.05
2019-05-30T04:45:46.153Z,9.20
2019-05-30T04:48:20.965Z,8.68
2019-05-30T04:50:50.816Z,8.33
2019-05-30T04:53:21.258Z,8.40
2019-05-30T04:55:51.851Z,8.10
2019-05-30T04:58:24.391Z,8.25
2019-05-30T05:00:54.021Z,8.78
2019-05-30T05:03:44.630Z,9.38
2019-05-30T05:05:56.179Z,8.65
2019-05-30T05:08:29.104Z,9.30
2019-05-30T05:11:02.111Z,10.15
2019-05-30T05:13:32.803Z,9.70
2019-05-30T05:18:35.092Z,10.65
2019-05-30T05:21:05.501Z,11.70
2019-05-30T05:23:35.823Z,11.30
2019-05-30T05:26:06.019Z,13.40
2019-05-30T05:28:36.244Z,13.48
2019-05-30T05:31:06.460Z,13.58
2019-05-30T05:33:36.679Z,13.43
2019-05-30T05:36:06.991Z,12.65
2019-05-30T05:38:37.199Z,13.22
2019-05-30T05:41:07.510Z,13.90
2019-05-30T05:43:37.707Z,13.83
2019-05-30T05:46:08.024Z,13.65
2019-05-30T05:48:39.212Z,14.40
2019-05-30T05:51:09.539Z,13.83
2019-05-30T05:53:39.760Z,13.35
2019-05-30T05:56:10.002Z,13.58
2019-05-30T05:58:40.220Z,13.10
2019-05-30T06:01:10.436Z,13.80
2019-05-30T06:03:40.628Z,15.00
2019-05-30T06:06:11.058Z,15.70
2019-05-30T06:08:41.246Z,16.73
2019-05-30T06:11:11.463Z,16.45
2019-05-30T06:13:41.890Z,16.80
2019-05-30T06:16:12.349Z,17.37
2019-05-30T06:18:42.638Z,17.00
2019-05-30T06:21:53.926Z,17.32
2019-05-30T06:24:19.663Z,16.77
2019-05-30T06:26:50.071Z,16.23
2019-05-30T06:29:20.270Z,16.23
2019-05-30T06:31:50.479Z,17.50
2019-05-30T06:36:52.946Z,18.65
2019-05-30T06:39:23.518Z,18.55
2019-05-30T06:41:53.990Z,19.42
2019-05-30T06:44:24.275Z,20.87
2019-05-30T06:46:54.604Z,19.40
2019-05-30T06:49:31.273Z,16.97
2019-05-30T06:52:01.532Z,16.90
2019-05-30T06:54:31.878Z,17.70
2019-05-30T06:57:02.095Z,18.05
2019-05-30T06:59:38.446Z,19.07
2019-05-30T07:02:08.641Z,17.90
2019-05-30T07:04:59.426Z,19.12
2019-05-30T07:07:31.418Z,17.98
2019-05-30T07:10:02.266Z,19.30
2019-05-30T07:12:33.226Z,18.57
2019-05-30T07:15:06.553Z,19.70
2019-05-30T07:17:36.744Z,20.97
2019-05-30T07:20:07.510Z,18.55
2019-05-30T07:22:38.659Z,20.32
2019-05-30T07:25:09.021Z,18.27
2019-05-30T07:27:39.213Z,16.20
2019-05-30T07:30:09.603Z,17.95
2019-05-30T07:32:42.836Z,17.85
2019-05-30T07:35:24.398Z,17.48
2019-05-30T07:40:24.636Z,16.67
2019-05-30T07:42:55.208Z,17.20
2019-05-30T07:45:26.736Z,17.30
2019-05-30T07:47:57.176Z,17.32
2019-05-30T07:50:28.354Z,18.05
2019-05-30T07:55:28.899Z,18.35
2019-05-30T07:57:59.364Z,19.70
2019-05-30T08:00:29.788Z,18.70
2019-05-30T08:02:59.998Z,18.07
2019-05-30T08:05:30.654Z,20.35
2019-05-30T08:08:00.950Z,19.27
2019-05-30T08:10:32.012Z,18.12
2019-05-30T08:15:31.814Z,19.15
2019-05-30T08:18:02.064Z,18.75
2019-05-30T08:20:32.315Z,18.80
2019-05-30T08:23:02.550Z,17.60
2019-05-30T08:25:32.745Z,17.75
2019-05-30T08:28:02.947Z,17.62
2019-05-30T08:30:34.464Z,17.37
2019-05-30T08:33:05.167Z,16.77
2019-05-30T08:35:44.441Z,17.20
2019-05-30T08:38:07.280Z,17.67
2019-05-30T08:40:37.806Z,20.62
2019-05-30T08:43:08.251Z,18.95
2019-05-30T08:45:38.523Z,18.12
2019-05-30T08:48:08.747Z,21.40
2019-05-30T08:50:43.144Z,20.02
2019-05-30T08:53:10.874Z,19.17
2019-05-30T08:55:41.064Z,21.65
2019-05-30T08:58:11.372Z,21.70
2019-05-30T09:03:11.984Z,20.75
2019-05-30T09:05:57.235Z,19.25
2019-05-30T09:08:14.123Z,20.62
2019-05-30T09:10:44.471Z,21.55
2019-05-30T09:13:14.945Z,22.03
2019-05-30T09:15:45.321Z,23.73
2019-05-30T09:18:15.625Z,24.17
2019-05-30T09:20:45.838Z,20.90
2019-05-30T09:23:16.087Z,22.07
2019-05-30T09:25:49.020Z,23.57
2019-05-30T09:28:18.244Z,21.95
2019-05-30T09:30:48.524Z,21.85
2019-05-30T09:33:18.814Z,21.60
2019-05-30T09:35:49.124Z,21.62
2019-05-30T09:38:20.588Z,22.27
2019-05-30T09:40:51.839Z,20.75
2019-05-30T09:43:22.098Z,21.25
2019-05-30T09:45:52.314Z,20.40
2019-05-30T09:48:22.499Z,19.73
2019-05-30T09:50:52.760Z,18.73
2019-05-30T09:53:22.948Z,17.73
2019-05-30T09:55:53.172Z,18.17
2019-05-30T09:58:23.365Z,17.57
2019-05-30T10:00:53.923Z,17.70
2019-05-30T10:03:24.130Z,16.95
2019-05-30T10:05:54.355Z,16.95
2019-05-30T10:08:24.621Z,14.90
2019-05-30T10:10:54.826Z,15.88
2019-05-30T10:13:25.011Z,16.10
2019-05-30T10:15:55.227Z,16.55
2019-05-30T10:18:25.433Z,16.80
2019-05-30T10:20:57.031Z,16.32
2019-05-30T10:23:27.563Z,16.30
2019-05-30T10:25:57.844Z,15.03
2019-05-30T10:28:28.147Z,15.20
2019-05-30T10:30:59.448Z,15.58
2019-05-30T10:33:29.939Z,13.93
2019-05-30T10:36:00.144Z,14.28
2019-05-30T10:38:30.516Z,14.20
2019-05-30T10:41:00.750Z,13.62
2019-05-30T10:43:31.914Z,13.85
2019-05-30T10:46:02.120Z,13.95
2019-05-30T10:48:32.323Z,15.88
2019-05-30T10:51:02.526Z,14.85
2019-05-30T10:53:32.719Z,14.78
2019-05-30T10:56:02.953Z,13.98
2019-05-30T10:58:33.142Z,12.78
2019-05-30T11:01:03.354Z,13.43
2019-05-30T11:03:33.546Z,13.43
2019-05-30T11:06:23.844Z,12.82
2019-05-30T11:08:54.795Z,12.82
2019-05-30T11:11:25.086Z,12.85
2019-05-30T11:13:55.465Z,11.85
2019-05-30T11:16:26.047Z,12.78
2019-05-30T11:18:56.309Z,12.18
2019-05-30T11:21:26.931Z,11.60
2019-05-30T11:23:58.315Z,12.03
2019-05-30T11:28:59.095Z,10.10
2019-05-30T11:31:29.310Z,9.75
2019-05-30T11:33:59.500Z,9.80
2019-05-30T11:36:51.007Z,9.53
2019-05-30T11:39:21.504Z,11.03
2019-05-30T11:41:53.209Z,9.57
2019-05-30T11:44:23.751Z,8.63
2019-05-30T11:46:55.534Z,8.35
2019-05-30T11:49:25.784Z,8.08
2019-05-30T11:51:55.999Z,8.43
2019-05-30T11:54:26.177Z,8.30
2019-05-30T11:56:56.395Z,8.90
2019-05-30T11:59:26.589Z,11.08
2019-05-30T12:01:56.831Z,10.63
2019-05-30T12:04:27.291Z,11.68
2019-05-30T12:07:43.293Z,11.80
2019-05-30T12:10:13.624Z,12.20
2019-05-30T12:12:43.831Z,12.10
2019-05-30T12:15:14.094Z,14.63
2019-05-30T12:17:44.316Z,15.50
2019-05-30T12:20:15.171Z,17.98
2019-05-30T12:22:45.456Z,17.73
2019-05-30T12:25:15.647Z,19.32
2019-05-30T12:27:45.857Z,19.70
2019-05-30T12:30:16.052Z,19.80
2019-05-30T12:32:46.417Z,19.25
2019-05-30T12:35:16.699Z,21.13
2019-05-30T12:37:55.150Z,20.60
2019-05-30T12:40:19.254Z,20.77
2019-05-30T12:42:49.534Z,20.92
2019-05-30T12:45:19.755Z,20.48
2019-05-30T12:47:49.975Z,20.20
2019-05-30T12:50:20.194Z,20.77
2019-05-30T12:52:50.416Z,19.07
2019-05-30T12:55:22.271Z,18.30
2019-05-30T12:57:52.647Z,17.05
2019-05-30T13:00:28.566Z,14.90
2019-05-30T13:02:58.854Z,13.62
2019-05-30T13:05:29.163Z,14.57
2019-05-30T13:08:14.433Z,13.35
2019-05-30T13:10:31.365Z,12.40
2019-05-30T13:13:01.910Z,12.37
2019-05-30T13:15:32.676Z,11.93
2019-05-30T13:18:03.130Z,10.78
2019-05-30T13:20:33.870Z,11.40
2019-05-30T13:23:04.709Z,10.15
2019-05-30T13:25:36.454Z,9.48
2019-05-30T13:28:08.511Z,8.77
2019-05-30T13:30:38.688Z,8.93
2019-05-30T13:33:09.930Z,8.70
2019-05-30T13:35:40.173Z,8.58
2019-05-30T13:38:23.803Z,8.50
2019-05-30T13:40:42.382Z,7.65
2019-05-30T13:43:12.686Z,8.33
2019-05-30T13:48:13.344Z,8.35
2019-05-30T13:50:44.472Z,8.17
2019-05-30T13:53:14.659Z,8.63
2019-05-30T13:55:44.951Z,7.50
2019-05-30T13:58:15.152Z,7.72
2019-05-30T14:00:47.808Z,7.50
2019-05-30T14:03:18.151Z,7.37
2019-05-30T14:05:48.558Z,7.00
2019-05-30T14:08:18.769Z,8.27
2019-05-30T14:10:49.140Z,7.37
2019-05-30T14:13:20.418Z,7.12
2019-05-30T14:15:50.736Z,6.73
2019-05-30T14:18:21.024Z,6.77
2019-05-30T14:20:51.227Z,6.10
2019-05-30T14:23:21.446Z,6.40
2019-05-30T14:25:51.908Z,6.03
2019-05-30T14:28:22.260Z,5.22
2019-05-30T14:30:52.449Z,4.92
2019-05-30T14:33:22.663Z,4.80
2019-05-30T14:35:52.867Z,5.05
2019-05-30T14:38:23.102Z,4.95
2019-05-30T14:40:53.520Z,4.50
2019-05-30T14:43:23.741Z,4.23
2019-05-30T14:45:55.238Z,4.10
2019-05-30T14:48:25.515Z,4.47
2019-05-30T14:50:55.779Z,4.63
2019-05-30T14:53:26.004Z,4.28
2019-05-30T14:55:56.287Z,4.07
2019-05-30T14:58:26.561Z,4.03
2019-05-30T15:00:56.850Z,3.92
2019-05-30T15:03:27.075Z,4.35
2019-05-30T15:05:57.280Z,3.87
2019-05-30T15:08:27.540Z,4.00
2019-05-30T15:10:57.824Z,3.10
2019-05-30T15:13:28.076Z,3.70
2019-05-30T15:15:58.347Z,3.70
2019-05-30T15:18:28.543Z,3.20
2019-05-30T15:20:58.851Z,2.90
2019-05-30T15:23:29.036Z,3.15
2019-05-30T15:25:59.285Z,2.80
2019-05-30T15:28:29.786Z,2.13
2019-05-30T15:30:59.987Z,2.15
2019-05-30T15:33:30.186Z,2.15
2019-05-30T15:36:00.379Z,2.12
2019-05-30T15:38:30.610Z,3.10
2019-05-30T15:41:00.842Z,2.80
2019-05-30T15:43:31.038Z,2.22
2019-05-30T15:46:01.232Z,2.00
2019-05-30T15:48:31.535Z,1.80
2019-05-30T15:51:01.810Z,1.53
2019-05-30T15:53:32.070Z,2.37
2019-05-30T15:56:02.274Z,2.15
2019-05-30T16:01:02.835Z,2.20
2019-05-30T16:03:33.493Z,2.00
2019-05-30T16:06:03.876Z,1.95
2019-05-30T16:08:34.125Z,1.98
2019-05-30T16:11:04.339Z,1.75
2019-05-30T16:13:34.692Z,1.80
2019-05-30T16:16:04.970Z,1.72
2019-05-30T16:18:35.201Z,1.53
2019-05-30T16:21:05.447Z,1.60
2019-05-30T16:23:35.831Z,1.75
2019-05-30T16:26:06.398Z,1.50
2019-05-30T16:28:36.595Z,1.92
2019-05-30T16:31:06.789Z,1.87
2019-05-30T16:33:36.987Z,1.70
2019-05-30T16:36:07.199Z,1.87
2019-05-30T16:38:37.495Z,2.00
2019-05-30T16:41:07.732Z,1.95
2019-05-30T16:43:38.178Z,1.90
2019-05-30T16:46:08.433Z,2.10
2019-05-30T16:48:38.648Z,2.25
2019-05-30T16:51:08.836Z,1.90
2019-05-30T16:53:39.054Z,1.95
2019-05-30T16:56:09.309Z,2.10
2019-05-30T16:58:39.517Z,1.80
2019-05-30T17:01:09.769Z,2.42
2019-05-30T17:03:40.062Z,2.00
2019-05-30T17:06:10.274Z,2.35
2019-05-30T17:08:40.467Z,2.62
2019-05-30T17:11:10.677Z,2.40
2019-05-30T17:13:40.869Z,2.27
2019-05-30T17:16:11.055Z,2.60
2019-05-30T17:18:41.250Z,2.33
2019-05-30T17:21:11.465Z,2.25
2019-05-30T17:23:41.656Z,1.37
2019-05-30T17:26:11.876Z,1.70
2019-05-30T17:28:42.208Z,1.40
2019-05-30T17:31:12.422Z,1.77
2019-05-30T17:33:42.621Z,1.80
2019-05-30T17:36:12.841Z,3.72
2019-05-30T17:38:43.043Z,2.98
2019-05-30T17:41:13.236Z,1.85
2019-05-30T17:43:43.437Z,2.25
2019-05-30T17:46:13.623Z,1.77
2019-05-30T17:48:43.831Z,2.25
2019-05-30T17:51:14.156Z,2.15
2019-05-30T17:53:44.380Z,2.10
2019-05-30T17:56:14.555Z,2.20
2019-05-30T17:58:44.754Z,2.10
2019-05-30T18:01:14.944Z,2.20
2019-05-30T18:03:45.147Z,2.22
2019-05-30T18:06:15.350Z,2.35
2019-05-30T18:08:45.548Z,2.25
2019-05-30T18:11:15.756Z,2.30
2019-05-30T18:13:45.961Z,2.62
2019-05-30T18:16:16.160Z,2.87
2019-05-30T18:18:46.383Z,2.85
2019-05-30T18:21:16.699Z,3.30
2019-05-30T18:23:46.902Z,2.65
2019-05-30T18:26:17.104Z,2.95
2019-05-30T18:29:02.006Z,2.55
2019-05-30T18:31:32.386Z,2.90
2019-05-30T18:34:02.831Z,2.47
2019-05-30T18:36:33.078Z,2.90
2019-05-30T18:39:03.354Z,3.22
2019-05-30T18:41:34.010Z,3.30
2019-05-30T18:44:04.695Z,3.02
2019-05-30T18:46:38.396Z,3.10
2019-05-30T18:49:06.795Z,3.47
2019-05-30T18:51:36.975Z,3.10
2019-05-30T18:54:07.193Z,3.15
2019-05-30T18:56:37.435Z,3.17
2019-05-30T18:59:07.662Z,3.10
2019-05-30T19:01:38.054Z,3.70
2019-05-30T19:04:08.556Z,3.52
2019-05-30T19:06:38.807Z,4.03
2019-05-30T19:11:40.765Z,4.20
2019-05-30T19:14:10.973Z,3.50
2019-05-30T19:16:41.155Z,3.95
2019-05-30T19:19:11.371Z,3.65
2019-05-30T19:21:41.655Z,4.10
2019-05-30T19:24:11.927Z,4.28
2019-05-30T19:26:42.106Z,4.25
2019-05-30T19:29:12.319Z,4.25
2019-05-30T19:31:42.519Z,4.50
2019-05-30T19:34:12.797Z,4.35
2019-05-30T19:36:42.991Z,4.50
2019-05-30T19:41:56.308Z,3.75
2019-05-30T19:44:15.683Z,4.40
2019-05-30T19:46:45.868Z,4.80
2019-05-30T19:49:16.289Z,4.85
2019-05-30T19:51:46.475Z,4.73
2019-05-30T19:54:16.779Z,5.28
2019-05-30T19:56:46.980Z,4.92
2019-05-30T19:59:17.375Z,5.12
2019-05-30T20:01:47.565Z,4.92
2019-05-30T20:04:17.807Z,4.53
2019-05-30T20:06:47.995Z,4.78
2019-05-30T20:09:18.279Z,4.20
2019-05-30T20:12:02.065Z,5.10
2019-05-30T20:14:20.488Z,4.78
2019-05-30T20:16:50.688Z,4.83
2019-05-30T20:19:20.898Z,4.62
2019-05-30T20:21:51.169Z,4.28
2019-05-30T20:24:21.352Z,5.17
2019-05-30T20:26:51.640Z,5.20
2019-05-30T20:29:21.837Z,5.45
2019-05-30T20:31:52.122Z,5.00
2019-05-30T20:34:22.309Z,5.08
2019-05-30T20:36:52.512Z,5.10
2019-05-30T20:39:22.707Z,4.97
2019-05-30T20:41:54.045Z,5.50
2019-05-30T20:44:24.493Z,5.33
2019-05-30T20:46:54.719Z,5.00
2019-05-30T20:49:24.919Z,5.30
2019-05-30T20:51:57.949Z,4.83
2019-05-30T20:54:28.208Z,5.53
2019-05-30T20:56:58.493Z,5.58
2019-05-30T20:59:28.680Z,5.25
2019-05-30T21:01:58.967Z,5.50
2019-05-30T21:04:29.169Z,5.40
2019-05-30T21:06:59.452Z,5.97
2019-05-30T21:09:30.619Z,5.47
2019-05-30T21:12:00.832Z,5.67
2019-05-30T21:14:33.024Z,5.62
2019-05-30T21:17:03.727Z,5.42
2019-05-30T21:19:33.982Z,4.85
2019-05-30T21:22:04.194Z,4.80
2019-05-30T21:24:34.387Z,5.12
2019-05-30T21:27:04.603Z,4.67
2019-05-30T21:29:34.804Z,4.62
2019-05-30T21:32:05.048Z,5.12
2019-05-30T21:34:35.318Z,5.15
2019-05-30T21:37:05.571Z,4.67
2019-05-30T21:39:35.759Z,4.10
2019-05-30T21:44:36.603Z,4.17
2019-05-30T21:47:06.888Z,3.92
2019-05-30T21:49:37.207Z,3.95
2019-05-30T21:52:07.423Z,3.72
2019-05-30T21:54:37.762Z,3.62
2019-05-30T21:57:08.101Z,3.20
2019-05-30T21:59:38.392Z,3.90
2019-05-30T22:02:08.649Z,3.65
2019-05-30T22:04:38.923Z,3.65
2019-05-30T22:07:09.111Z,3.67
2019-05-30T22:09:39.311Z,3.47
2019-05-30T22:12:09.525Z,4.10
2019-05-30T22:14:39.739Z,4.28
2019-05-30T22:17:09.963Z,4.05
2019-05-30T22:19:40.156Z,4.08
2019-05-30T22:22:10.346Z,4.35
2019-05-30T22:24:40.559Z,3.80
2019-05-30T22:27:10.816Z,4.20
2019-05-30T22:29:42.129Z,3.87
2019-05-30T22:32:13.742Z,4.03
2019-05-30T22:34:44.716Z,4.50
2019-05-30T22:37:15.114Z,4.33
2019-05-30T22:42:29.253Z,4.15
2019-05-30T22:44:59.455Z,4.67
2019-05-30T22:47:29.657Z,4.08
2019-05-30T22:49:59.870Z,3.27
2019-05-30T22:52:30.067Z,2.80
2019-05-30T22:55:00.271Z,3.30
2019-05-30T22:57:30.456Z,3.12
2019-05-30T23:00:00.662Z,3.20
2019-05-30T23:02:31.020Z,2.87
2019-05-30T23:05:01.230Z,2.70
2019-05-30T23:07:31.499Z,2.72
2019-05-30T23:10:01.774Z,3.00
2019-05-30T23:12:31.975Z,3.00
2019-05-30T23:15:02.194Z,2.72
2019-05-30T23:17:32.520Z,2.87
2019-05-30T23:20:02.751Z,3.20
2019-05-30T23:22:32.941Z,2.98
2019-05-30T23:25:23.954Z,3.30
2019-05-30T23:27:57.634Z,3.52
2019-05-30T23:30:28.050Z,3.12
2019-05-30T23:32:58.441Z,3.47
2019-05-30T23:35:28.859Z,3.42
2019-05-30T23:37:59.096Z,3.60
2019-05-30T23:40:50.959Z,2.90
2019-05-30T23:45:51.376Z,3.05
2019-05-30T23:48:21.759Z,2.95
2019-05-30T23:51:05.147Z,3.05
2019-05-30T23:53:35.351Z,2.52
2019-05-30T23:56:05.774Z,2.95
2019-05-30T23:58:35.970Z,2.93
